createdAt,value
2019-02-28T00:02:12.760Z,64.90
2019-02-28T00:04:40.923Z,48.90
2019-02-28T00:07:09.309Z,39.20
2019-02-28T00:09:37.513Z,37.77
2019-02-28T00:12:07.158Z,49.70
2019-02-28T00:14:35.341Z,31.47
2019-02-28T00:17:06.199Z,31.47
2019-02-28T00:19:33.725Z,31.73
2019-02-28T00:22:01.889Z,46.47
2019-02-28T00:24:30.712Z,62.43
2019-02-28T00:26:59.048Z,52.00
2019-02-28T00:29:27.203Z,47.33
2019-02-28T00:31:55.407Z,39.87
2019-02-28T00:34:24.645Z,44.70
2019-02-28T00:36:53.343Z,58.83
2019-02-28T00:39:22.333Z,52.87
2019-02-28T00:41:50.472Z,95.67
2019-02-28T00:44:18.623Z,74.97
2019-02-28T00:46:46.863Z,57.53
2019-02-28T00:49:15.087Z,46.93
2019-02-28T00:51:43.247Z,66.27
2019-02-28T00:54:11.648Z,64.70
2019-02-28T00:56:39.796Z,58.67
2019-02-28T00:59:07.959Z,48.20
2019-02-28T01:01:36.169Z,43.00
2019-02-28T01:04:05.245Z,31.47
2019-02-28T01:06:33.561Z,28.60
2019-02-28T01:09:01.788Z,27.00
2019-02-28T01:11:30.033Z,25.37
2019-02-28T01:14:01.542Z,21.10
2019-02-28T01:16:28.099Z,28.00
2019-02-28T01:18:56.385Z,22.43
2019-02-28T01:21:24.709Z,24.03
2019-02-28T01:23:53.124Z,38.93
2019-02-28T01:26:21.275Z,28.13
2019-02-28T01:28:49.432Z,26.63
2019-02-28T01:31:17.657Z,24.23
2019-02-28T01:33:46.005Z,25.30
2019-02-28T01:36:15.555Z,25.70
2019-02-28T01:38:44.499Z,27.47
2019-02-28T01:41:12.643Z,30.17
2019-02-28T01:43:40.805Z,32.10
2019-02-28T01:46:09.176Z,30.53
2019-02-28T01:48:37.340Z,32.73
2019-02-28T01:51:05.499Z,27.67
2019-02-28T01:53:33.727Z,29.70
2019-02-28T01:56:02.573Z,32.40
2019-02-28T01:58:31.632Z,26.33
2019-02-28T02:00:59.976Z,25.83
2019-02-28T02:03:28.368Z,29.13
2019-02-28T02:05:56.666Z,33.97
2019-02-28T02:08:25.216Z,27.40
2019-02-28T02:10:56.020Z,30.17
2019-02-28T02:13:23.388Z,26.17
2019-02-28T02:15:52.105Z,29.07
2019-02-28T02:18:20.518Z,22.80
2019-02-28T02:20:48.671Z,29.07
2019-02-28T02:23:18.195Z,36.27
2019-02-28T02:25:46.956Z,36.07
2019-02-28T02:28:15.118Z,40.93
2019-02-28T02:30:50.387Z,41.10
2019-02-28T02:33:14.565Z,36.20
2019-02-28T02:35:43.637Z,41.40
2019-02-28T02:38:12.945Z,31.00
2019-02-28T02:40:41.106Z,28.03
2019-02-28T02:43:09.259Z,33.37
2019-02-28T02:45:41.955Z,32.23
2019-02-28T02:48:07.400Z,31.30
2019-02-28T02:50:36.110Z,29.73
2019-02-28T02:53:05.448Z,28.20
2019-02-28T02:55:34.206Z,32.67
2019-02-28T02:58:02.367Z,32.33
2019-02-28T03:00:30.644Z,42.90
2019-02-28T03:02:58.806Z,28.73
2019-02-28T03:05:26.979Z,33.30
2019-02-28T03:07:59.570Z,33.30
2019-02-28T03:10:25.999Z,41.30
2019-02-28T03:12:54.157Z,43.63
2019-02-28T03:15:26.941Z,36.40
2019-02-28T03:17:52.318Z,38.53
2019-02-28T03:20:20.476Z,40.73
2019-02-28T03:22:48.673Z,31.67
2019-02-28T03:25:17.208Z,31.33
2019-02-28T03:27:45.381Z,28.07
2019-02-28T03:30:26.575Z,28.17
2019-02-28T03:32:45.211Z,36.23
2019-02-28T03:35:13.580Z,27.23
2019-02-28T03:37:41.836Z,29.30
2019-02-28T03:40:11.688Z,29.23
2019-02-28T03:42:39.862Z,33.47
2019-02-28T03:45:09.013Z,33.93
2019-02-28T03:47:37.166Z,37.73
2019-02-28T03:50:05.932Z,31.73
2019-02-28T03:52:34.147Z,35.13
2019-02-28T03:55:04.513Z,33.27
2019-02-28T03:57:32.685Z,40.67
2019-02-28T04:00:01.141Z,59.73
2019-02-28T04:02:29.437Z,47.00
2019-02-28T04:04:57.635Z,59.43
2019-02-28T04:07:25.848Z,60.83
2019-02-28T04:09:54.005Z,54.47
2019-02-28T04:12:22.163Z,45.17
2019-02-28T04:14:50.366Z,51.20
2019-02-28T04:17:18.541Z,44.30
2019-02-28T04:19:46.700Z,43.97
2019-02-28T04:22:14.954Z,49.60
2019-02-28T04:24:46.346Z,49.73
2019-02-28T04:27:13.139Z,45.50
2019-02-28T04:29:42.070Z,43.37
2019-02-28T04:32:10.480Z,40.13
2019-02-28T04:34:38.707Z,24.57
2019-02-28T04:37:08.556Z,18.27
2019-02-28T04:39:37.092Z,18.60
2019-02-28T04:42:06.632Z,16.80
2019-02-28T04:44:35.088Z,41.60
2019-02-28T04:47:06.502Z,42.37
2019-02-28T04:49:33.096Z,41.43
2019-02-28T04:52:01.559Z,35.00
2019-02-28T04:54:29.786Z,39.07
2019-02-28T04:56:58.365Z,43.00
2019-02-28T04:59:26.633Z,36.10
2019-02-28T05:01:54.864Z,43.50
2019-02-28T05:04:23.022Z,47.47
2019-02-28T05:06:52.217Z,42.43
2019-02-28T05:09:21.544Z,49.23
2019-02-28T05:11:50.009Z,46.23
2019-02-28T05:14:23.363Z,57.23
2019-02-28T05:16:48.464Z,46.83
2019-02-28T05:19:16.880Z,47.77
2019-02-28T05:21:45.099Z,43.17
2019-02-28T05:24:13.497Z,42.03
2019-02-28T05:26:41.625Z,43.53
2019-02-28T05:29:11.849Z,53.73
2019-02-28T05:31:39.836Z,61.60
2019-02-28T05:34:08.221Z,62.20
2019-02-28T05:36:37.805Z,86.63
2019-02-28T05:39:06.379Z,70.97
2019-02-28T05:41:36.228Z,90.97
2019-02-28T05:44:06.322Z,77.60
2019-02-28T05:46:35.411Z,84.70
2019-02-28T05:49:03.576Z,118.30
2019-02-28T05:51:31.901Z,116.30
2019-02-28T05:54:00.126Z,112.27
2019-02-28T05:56:32.831Z,99.80
2019-02-28T05:58:58.133Z,112.03
2019-02-28T06:01:26.484Z,112.30
2019-02-28T06:03:54.760Z,117.07
2019-02-28T06:06:22.966Z,104.37
2019-02-28T06:08:51.191Z,115.87
2019-02-28T06:11:19.348Z,113.77
2019-02-28T06:13:49.674Z,115.10
2019-02-28T06:16:17.669Z,122.93
2019-02-28T06:18:46.096Z,117.40
2019-02-28T06:21:14.328Z,125.33
2019-02-28T06:23:42.484Z,134.77
2019-02-28T06:26:10.646Z,123.03
2019-02-28T06:28:39.221Z,124.77
2019-02-28T06:31:07.376Z,106.30
2019-02-28T06:33:35.537Z,112.27
2019-02-28T06:36:04.597Z,95.90
2019-02-28T06:38:33.092Z,106.93
2019-02-28T06:41:01.251Z,104.80
2019-02-28T06:43:29.669Z,105.33
2019-02-28T06:45:58.740Z,57.73
2019-02-28T06:48:27.211Z,18.87
2019-02-28T06:50:56.094Z,16.23
2019-02-28T06:53:24.768Z,16.87
2019-02-28T06:55:52.917Z,14.20
2019-02-28T06:58:21.516Z,17.00
2019-02-28T07:00:50.530Z,14.80
2019-02-28T07:03:18.833Z,15.63
2019-02-28T07:05:47.371Z,18.20
2019-02-28T07:08:15.628Z,15.20
2019-02-28T07:10:44.936Z,16.77
2019-02-28T07:13:14.228Z,15.33
2019-02-28T07:15:42.640Z,12.50
2019-02-28T07:18:11.038Z,15.07
2019-02-28T07:20:39.771Z,15.90
2019-02-28T07:23:08.079Z,14.40
2019-02-28T07:25:36.340Z,14.23
2019-02-28T07:28:04.929Z,18.10
2019-02-28T07:30:33.113Z,15.33
2019-02-28T07:33:01.387Z,15.77
2019-02-28T07:35:34.048Z,14.30
2019-02-28T07:37:59.767Z,15.73
2019-02-28T07:40:28.177Z,12.23
2019-02-28T07:42:56.561Z,14.63
2019-02-28T07:45:25.001Z,12.73
2019-02-28T07:47:53.581Z,15.20
2019-02-28T07:50:22.179Z,15.90
2019-02-28T07:52:50.485Z,14.07
2019-02-28T07:55:19.458Z,14.50
2019-02-28T07:57:51.139Z,15.97
2019-02-28T08:00:21.397Z,14.87
2019-02-28T08:02:49.589Z,15.17
2019-02-28T08:05:17.928Z,15.83
2019-02-28T08:07:50.930Z,14.13
2019-02-28T08:10:18.129Z,15.53
2019-02-28T08:12:46.571Z,17.67
2019-02-28T08:15:21.118Z,16.73
2019-02-28T08:17:46.780Z,16.07
2019-02-28T08:20:15.384Z,15.27
2019-02-28T08:22:43.544Z,15.27
2019-02-28T08:25:13.327Z,15.80
2019-02-28T08:27:41.783Z,16.27
2019-02-28T08:33:09.510Z,15.10
2019-02-28T08:35:37.950Z,16.00
2019-02-28T08:38:06.937Z,17.13
2019-02-28T08:40:35.703Z,13.57
2019-02-28T08:43:04.262Z,13.80
2019-02-28T08:45:33.427Z,16.97
2019-02-28T08:48:03.605Z,15.50
2019-02-28T08:50:31.763Z,16.37
2019-02-28T08:53:05.957Z,13.07
2019-02-28T08:55:34.147Z,13.07
2019-02-28T08:58:06.250Z,18.20
2019-02-28T09:00:33.234Z,10.53
2019-02-28T09:03:01.788Z,11.77
2019-02-28T09:05:30.334Z,16.17
2019-02-28T09:07:58.628Z,10.83
2019-02-28T09:10:27.083Z,11.13
2019-02-28T09:12:55.601Z,10.20
2019-02-28T09:15:27.199Z,11.07
2019-02-28T09:17:58.204Z,8.67
2019-02-28T09:20:24.091Z,8.50
2019-02-28T09:22:52.444Z,9.83
2019-02-28T09:25:22.718Z,12.03
2019-02-28T09:27:51.126Z,9.10
2019-02-28T09:30:26.468Z,12.10
2019-02-28T09:32:54.488Z,9.57
2019-02-28T09:35:23.138Z,9.97
2019-02-28T09:37:51.325Z,10.10
2019-02-28T09:40:19.488Z,11.00
2019-02-28T09:42:50.814Z,9.57
2019-02-28T09:45:18.761Z,8.97
2019-02-28T09:47:46.940Z,10.43
2019-02-28T09:50:23.442Z,9.73
2019-02-28T09:52:51.699Z,8.43
2019-02-28T09:55:19.852Z,10.87
2019-02-28T09:57:53.817Z,9.23
2019-02-28T10:00:21.535Z,11.00
2019-02-28T10:02:49.677Z,10.40
2019-02-28T10:05:17.878Z,11.70
2019-02-28T10:07:46.081Z,10.77
2019-02-28T10:10:20.317Z,11.17
2019-02-28T10:12:45.708Z,10.00
2019-02-28T10:15:15.151Z,12.93
2019-02-28T10:17:43.291Z,11.50
2019-02-28T10:20:13.224Z,13.83
2019-02-28T10:22:44.407Z,12.50
2019-02-28T10:25:11.672Z,10.37
2019-02-28T10:27:39.948Z,14.53
2019-02-28T10:30:09.729Z,14.00
2019-02-28T10:32:40.379Z,14.03
2019-02-28T10:35:08.261Z,13.03
2019-02-28T10:37:36.509Z,13.63
2019-02-28T10:40:24.179Z,14.17
2019-02-28T10:42:52.341Z,14.83
2019-02-28T10:45:21.236Z,15.33
2019-02-28T10:47:49.427Z,15.47
2019-02-28T10:50:21.663Z,15.27
2019-02-28T10:52:50.785Z,17.90
2019-02-28T10:55:19.494Z,18.33
2019-02-28T10:57:49.258Z,16.23
2019-02-28T11:00:22.440Z,15.60
2019-02-28T11:02:54.161Z,19.63
2019-02-28T11:05:27.345Z,18.87
2019-02-28T11:07:55.016Z,18.67
2019-02-28T11:10:24.044Z,18.83
2019-02-28T11:12:54.295Z,16.70
2019-02-28T11:15:25.437Z,18.97
2019-02-28T11:17:54.955Z,16.30
2019-02-28T11:20:26.235Z,15.80
2019-02-28T11:22:53.331Z,11.43
2019-02-28T11:25:22.649Z,13.77
2019-02-28T11:27:53.782Z,23.63
2019-02-28T11:30:22.958Z,18.67
2019-02-28T11:32:51.970Z,15.27
2019-02-28T11:35:23.250Z,16.03
2019-02-28T11:37:50.896Z,14.77
2019-02-28T11:40:19.484Z,15.37
2019-02-28T11:42:47.641Z,14.73
2019-02-28T11:45:22.047Z,13.35
2019-02-28T11:47:51.419Z,16.75
2019-02-28T11:50:20.034Z,15.50
2019-02-28T11:52:48.599Z,12.80
2019-02-28T11:55:20.399Z,14.35
2019-02-28T11:57:47.792Z,15.45
2019-02-28T12:00:24.481Z,12.98
2019-02-28T12:02:53.472Z,12.80
2019-02-28T12:05:22.041Z,12.82
2019-02-28T12:07:50.883Z,14.63
2019-02-28T12:10:20.183Z,14.07
2019-02-28T12:12:48.425Z,14.33
2019-02-28T12:15:18.016Z,15.67
2019-02-28T12:17:46.449Z,16.30
2019-02-28T12:20:14.856Z,13.77
2019-02-28T12:22:44.021Z,34.80
2019-02-28T12:25:14.042Z,12.83
2019-02-28T12:27:42.369Z,15.53
2019-02-28T12:30:13.316Z,11.97
2019-02-28T12:32:43.524Z,13.60
2019-02-28T12:35:11.397Z,14.57
2019-02-28T12:37:39.666Z,10.67
2019-02-28T12:40:13.263Z,11.10
2019-02-28T12:42:41.475Z,11.90
2019-02-28T12:45:11.502Z,14.40
2019-02-28T12:47:41.597Z,10.93
2019-02-28T12:50:11.865Z,12.83
2019-02-28T12:52:40.020Z,14.70
2019-02-28T12:55:12.716Z,11.43
2019-02-28T12:57:42.616Z,13.37
2019-02-28T13:00:13.124Z,15.23
2019-02-28T13:02:43.509Z,11.93
2019-02-28T13:05:14.840Z,13.43
2019-02-28T13:07:42.109Z,11.20
2019-02-28T13:10:12.026Z,13.80
2019-02-28T13:12:44.243Z,15.40
2019-02-28T13:15:17.307Z,15.90
2019-02-28T13:17:45.662Z,14.67
2019-02-28T13:20:15.959Z,15.17
2019-02-28T13:22:46.430Z,12.20
2019-02-28T13:25:14.727Z,13.90
2019-02-28T13:27:45.284Z,14.23
2019-02-28T13:30:23.844Z,10.63
2019-02-28T13:32:52.093Z,12.30
2019-02-28T13:35:24.610Z,17.37
2019-02-28T13:37:52.965Z,15.13
2019-02-28T13:40:23.508Z,14.07
2019-02-28T13:42:51.704Z,41.93
2019-02-28T13:45:23.029Z,16.30
2019-02-28T13:47:50.770Z,18.00
2019-02-28T13:50:22.035Z,21.73
2019-02-28T13:52:52.214Z,18.40
2019-02-28T13:55:20.969Z,13.90
2019-02-28T13:57:49.665Z,13.03
2019-02-28T14:00:22.871Z,18.23
2019-02-28T14:02:52.381Z,14.73
2019-02-28T14:05:20.894Z,18.73
2019-02-28T14:07:49.290Z,17.70
2019-02-28T14:10:21.563Z,23.40
2019-02-28T14:12:57.073Z,21.93
2019-02-28T14:15:25.769Z,16.37
2019-02-28T14:17:56.037Z,26.77
2019-02-28T14:20:27.582Z,16.77
2019-02-28T14:22:55.341Z,19.63
2019-02-28T14:25:24.373Z,19.17
2019-02-28T14:27:53.004Z,21.23
2019-02-28T14:30:24.580Z,18.77
2019-02-28T14:32:53.421Z,21.13
2019-02-28T14:35:24.172Z,13.83
2019-02-28T14:37:55.664Z,16.63
2019-02-28T14:40:23.203Z,19.83
2019-02-28T14:42:53.177Z,18.43
2019-02-28T14:45:22.826Z,18.87
2019-02-28T14:47:57.135Z,22.80
2019-02-28T14:50:28.544Z,26.10
2019-02-28T14:53:01.114Z,22.00
2019-02-28T14:55:32.599Z,18.13
2019-02-28T14:58:00.150Z,20.07
2019-02-28T15:00:30.705Z,15.57
2019-02-28T15:03:03.047Z,21.10
2019-02-28T15:05:35.957Z,14.90
2019-02-28T15:08:04.942Z,14.67
2019-02-28T15:10:34.286Z,15.03
2019-02-28T15:13:04.801Z,16.00
2019-02-28T15:15:33.185Z,18.20
2019-02-28T15:18:01.526Z,16.77
2019-02-28T15:20:32.812Z,12.47
2019-02-28T15:22:59.842Z,14.60
2019-02-28T15:25:31.279Z,20.30
2019-02-28T15:28:02.236Z,20.80
2019-02-28T15:30:35.038Z,16.67
2019-02-28T15:33:05.492Z,17.10
2019-02-28T15:35:35.021Z,15.87
2019-02-28T15:38:05.709Z,15.63
2019-02-28T15:40:42.563Z,18.70
2019-02-28T15:43:10.799Z,17.53
2019-02-28T15:45:40.856Z,17.93
2019-02-28T15:48:09.401Z,28.33
2019-02-28T15:50:37.549Z,29.87
2019-02-28T15:53:07.684Z,35.03
2019-02-28T15:55:36.584Z,20.07
2019-02-28T15:58:05.867Z,20.20
2019-02-28T16:00:35.792Z,18.13
2019-02-28T16:03:05.972Z,34.60
2019-02-28T16:05:35.197Z,28.60
2019-02-28T16:08:08.660Z,18.10
2019-02-28T16:10:35.178Z,30.23
2019-02-28T16:13:04.802Z,27.80
2019-02-28T16:15:33.112Z,29.33
2019-02-28T16:18:01.479Z,26.17
2019-02-28T16:20:31.809Z,38.20
2019-02-28T16:23:00.092Z,49.37
2019-02-28T16:25:37.589Z,36.10
2019-02-28T16:28:09.714Z,24.27
2019-02-28T16:30:38.860Z,31.27
2019-02-28T16:33:09.345Z,38.90
2019-02-28T16:35:37.492Z,23.87
2019-02-28T16:38:06.545Z,64.23
2019-02-28T16:40:37.223Z,48.87
2019-02-28T16:43:06.167Z,77.03
2019-02-28T16:45:37.520Z,63.37
2019-02-28T16:48:09.023Z,38.90
2019-02-28T16:50:37.279Z,53.37
2019-02-28T16:53:05.596Z,72.03
2019-02-28T16:55:33.877Z,50.73
2019-02-28T16:58:02.029Z,56.80
2019-02-28T17:00:30.696Z,66.33
2019-02-28T17:02:59.076Z,46.57
2019-02-28T17:05:28.403Z,50.53
2019-02-28T17:07:58.154Z,51.00
2019-02-28T17:10:27.968Z,54.40
2019-02-28T17:13:14.176Z,132.87
2019-02-28T17:16:01.609Z,108.00
2019-02-28T17:18:31.336Z,37.30
2019-02-28T17:20:59.506Z,47.83
2019-02-28T17:23:27.720Z,50.00
2019-02-28T17:25:56.596Z,50.13
2019-02-28T17:28:27.502Z,42.10
2019-02-28T17:31:12.561Z,35.47
2019-02-28T17:33:43.306Z,34.70
2019-02-28T17:36:12.578Z,45.10
2019-02-28T17:38:40.995Z,57.83
2019-02-28T17:41:10.995Z,87.07
2019-02-28T17:43:39.801Z,155.33
2019-02-28T17:46:09.970Z,65.23
2019-02-28T17:48:56.435Z,44.33
2019-02-28T17:51:28.939Z,51.43
2019-02-28T17:54:13.784Z,26.47
2019-02-28T17:56:46.512Z,62.67
2019-02-28T17:59:19.311Z,33.63
2019-02-28T18:02:07.987Z,42.37
2019-02-28T18:04:56.067Z,41.53
2019-02-28T18:07:37.492Z,61.80
2019-02-28T18:10:08.442Z,35.03
2019-02-28T18:12:49.810Z,28.30
2019-02-28T18:15:36.719Z,52.93
2019-02-28T18:18:08.805Z,49.00
2019-02-28T18:20:41.855Z,51.73
2019-02-28T18:23:21.144Z,49.63
2019-02-28T18:26:08.949Z,170.07
2019-02-28T18:28:38.858Z,208.67
2019-02-28T18:31:08.553Z,109.63
2019-02-28T18:33:37.755Z,38.40
2019-02-28T18:36:08.351Z,32.80
2019-02-28T18:38:36.859Z,33.67
2019-02-28T18:41:06.498Z,50.63
2019-02-28T18:43:37.446Z,48.77
2019-02-28T18:46:05.440Z,33.80
2019-02-28T18:48:34.492Z,33.57
2019-02-28T18:51:02.993Z,34.73
2019-02-28T18:53:31.148Z,41.03
2019-02-28T18:56:00.625Z,38.80
2019-02-28T18:58:28.784Z,43.83
2019-02-28T19:00:57.188Z,29.30
2019-02-28T19:03:26.333Z,31.87
2019-02-28T19:05:56.924Z,34.27
2019-02-28T19:08:26.965Z,32.97
2019-02-28T19:10:56.696Z,39.17
2019-02-28T19:13:25.455Z,37.37
2019-02-28T19:15:54.739Z,33.07
2019-02-28T19:18:27.535Z,43.90
2019-02-28T19:21:00.699Z,33.17
2019-02-28T19:23:49.303Z,35.33
2019-02-28T19:26:19.662Z,37.23
2019-02-28T19:28:48.814Z,41.17
2019-02-28T19:31:17.362Z,37.43
2019-02-28T19:34:06.194Z,37.57
2019-02-28T19:36:35.975Z,70.60
2019-02-28T19:39:05.621Z,36.37
2019-02-28T19:41:33.952Z,99.13
2019-02-28T19:44:02.175Z,47.70
2019-02-28T19:46:30.376Z,53.67
2019-02-28T19:48:58.930Z,47.37
2019-02-28T19:51:27.096Z,55.10
2019-02-28T19:53:55.721Z,100.97
2019-02-28T19:56:24.059Z,146.17
2019-02-28T19:58:52.291Z,77.77
2019-02-28T20:01:21.122Z,67.27
2019-02-28T20:03:49.399Z,72.00
2019-02-28T20:06:17.773Z,63.07
2019-02-28T20:08:46.309Z,78.17
2019-02-28T20:11:14.576Z,38.23
2019-02-28T20:13:43.919Z,44.27
2019-02-28T20:16:12.309Z,39.13
2019-02-28T20:18:40.921Z,37.73
2019-02-28T20:21:10.753Z,121.27
2019-02-28T20:23:39.081Z,71.67
2019-02-28T20:26:07.599Z,48.77
2019-02-28T20:28:35.851Z,39.00
2019-02-28T20:31:04.326Z,58.47
2019-02-28T20:33:32.527Z,47.00
2019-02-28T20:36:01.276Z,43.60
2019-02-28T20:38:29.719Z,79.00
2019-02-28T20:40:58.365Z,169.90
2019-02-28T20:43:26.609Z,116.37
2019-02-28T20:45:55.135Z,48.90
2019-02-28T20:48:23.356Z,59.97
2019-02-28T20:50:52.810Z,57.33
2019-02-28T20:53:21.167Z,49.67
2019-02-28T20:55:49.385Z,69.33
2019-02-28T20:58:17.635Z,89.60
2019-02-28T21:00:45.990Z,73.50
2019-02-28T21:03:14.798Z,47.83
2019-02-28T21:05:43.305Z,46.50
2019-02-28T21:08:11.679Z,47.60
2019-02-28T21:10:40.249Z,46.87
2019-02-28T21:13:08.585Z,39.87
2019-02-28T21:15:37.211Z,54.47
2019-02-28T21:18:06.018Z,47.30
2019-02-28T21:20:34.233Z,55.47
2019-02-28T21:23:02.673Z,50.67
2019-02-28T21:25:30.986Z,56.07
2019-02-28T21:27:59.198Z,48.83
2019-02-28T21:30:28.037Z,50.63
2019-02-28T21:32:56.308Z,51.00
2019-02-28T21:35:25.733Z,53.83
2019-02-28T21:37:54.328Z,66.37
2019-02-28T21:40:23.500Z,50.37
2019-02-28T21:42:51.771Z,110.00
2019-02-28T21:45:22.722Z,54.17
2019-02-28T21:47:51.100Z,48.40
2019-02-28T21:50:21.233Z,72.40
2019-02-28T21:52:50.929Z,83.63
2019-02-28T21:55:19.628Z,46.07
2019-02-28T21:58:15.150Z,56.97
2019-02-28T22:00:43.603Z,44.60
2019-02-28T22:03:11.888Z,52.83
2019-02-28T22:05:40.291Z,54.53
2019-02-28T22:08:09.125Z,49.63
2019-02-28T22:10:37.272Z,57.03
2019-02-28T22:13:05.436Z,55.93
2019-02-28T22:15:34.080Z,49.63
2019-02-28T22:18:03.345Z,49.73
2019-02-28T22:20:31.870Z,47.27
2019-02-28T22:23:00.026Z,57.77
2019-02-28T22:25:28.287Z,50.87
2019-02-28T22:27:56.816Z,50.67
2019-02-28T22:30:39.771Z,53.17
2019-02-28T22:33:12.433Z,50.40
2019-02-28T22:35:46.751Z,51.97
2019-02-28T22:38:15.085Z,55.63
2019-02-28T22:40:43.268Z,55.90
2019-02-28T22:43:11.433Z,58.97
2019-02-28T22:45:39.865Z,54.13
2019-02-28T22:48:08.109Z,60.93
2019-02-28T22:50:36.322Z,111.17
2019-02-28T22:53:04.625Z,55.60
2019-02-28T22:55:32.991Z,87.37
2019-02-28T22:58:02.812Z,74.67
2019-02-28T23:00:52.195Z,66.90
2019-02-28T23:03:20.727Z,58.33
2019-02-28T23:05:48.882Z,51.90
2019-02-28T23:08:17.154Z,68.00
2019-02-28T23:10:45.390Z,78.07
2019-02-28T23:13:13.717Z,66.57
2019-02-28T23:15:42.037Z,48.93
2019-02-28T23:18:10.231Z,56.90
2019-02-28T23:20:39.330Z,50.07
2019-02-28T23:23:07.489Z,48.37
2019-02-28T23:25:35.944Z,47.57
2019-02-28T23:28:11.880Z,78.50
2019-02-28T23:30:41.713Z,64.87
2019-02-28T23:33:10.143Z,69.87
2019-02-28T23:35:38.318Z,59.27
2019-02-28T23:38:06.499Z,54.50
2019-02-28T23:40:34.663Z,75.60
2019-02-28T23:43:03.415Z,54.17
2019-02-28T23:45:31.608Z,64.03
2019-02-28T23:47:59.766Z,63.50
2019-02-28T23:50:27.935Z,60.63
2019-02-28T23:52:56.133Z,67.40
2019-02-28T23:55:24.671Z,55.20
2019-02-28T23:57:53.232Z,64.70
